createdAt,value
2023-04-11T00:01:45.080Z,1004.47
2023-04-11T00:08:04.980Z,1004.37
2023-04-11T00:14:28.032Z,1004.43
2023-04-11T00:20:47.977Z,1004.5
2023-04-11T00:27:11.019Z,1004.56
2023-04-11T00:33:31.010Z,1004.41
2023-04-11T00:39:54.043Z,1004.19
2023-04-11T00:46:13.981Z,1004.25
2023-04-11T00:52:37.030Z,1004.19
2023-04-11T00:58:57.114Z,1004.11
2023-04-11T01:05:20.024Z,1004.01
2023-04-11T01:11:40.016Z,1003.96
2023-04-11T01:18:03.082Z,1003.94
2023-04-11T01:24:22.997Z,1003.84
2023-04-11T01:30:46.058Z,1003.84
2023-04-11T01:37:05.995Z,1003.94
2023-04-11T01:43:28.993Z,1003.96
2023-04-11T01:49:49.090Z,1003.88
2023-04-11T01:56:12.036Z,1003.86
2023-04-11T02:02:32.068Z,1003.94
2023-04-11T02:08:55.285Z,1004
2023-04-11T02:15:15.010Z,1004
2023-04-11T02:21:38.017Z,1004.01
2023-04-11T02:27:57.999Z,1004.07
2023-04-11T02:34:20.994Z,1004.15
2023-04-11T02:40:41.039Z,1004.23
2023-04-11T02:47:04.073Z,1004.27
2023-04-11T02:53:24.022Z,1004.37
2023-04-11T02:59:46.974Z,1004.48
2023-04-11T03:06:07.026Z,1004.5
2023-04-11T03:12:29.974Z,1004.58
2023-04-11T03:18:50.037Z,1004.64
2023-04-11T03:25:12.997Z,1004.74
2023-04-11T03:42:14.988Z,1004.8
2023-04-11T03:48:37.998Z,1004.84
2023-04-11T03:54:57.993Z,1004.9
2023-04-11T04:01:21.029Z,1004.99
2023-04-11T04:07:41.002Z,1005.05
2023-04-11T04:14:03.986Z,1005.07
2023-04-11T04:20:24.039Z,1005.05
2023-04-11T04:26:47.003Z,1005.07
2023-04-11T04:33:07.079Z,1005.15
2023-04-11T04:39:30.070Z,1005.17
2023-04-11T04:45:50.042Z,1005.21
2023-04-11T04:52:13.014Z,1005.25
2023-04-11T04:58:33.044Z,1005.27
2023-04-11T05:04:55.974Z,1005.29
2023-04-11T05:11:16.017Z,1005.31
2023-04-11T05:17:39.077Z,1005.34
2023-04-11T05:23:59.053Z,1005.4
2023-04-11T05:30:22.012Z,1005.51
2023-04-11T05:36:42.016Z,1005.59
2023-04-11T05:43:04.995Z,1005.65
2023-04-11T05:49:24.995Z,1005.69
2023-04-11T05:55:48.034Z,1005.74
2023-04-11T06:02:08.037Z,1005.76
2023-04-11T06:08:30.992Z,1005.86
2023-04-11T06:14:51.028Z,1005.92
2023-04-11T06:21:14.029Z,1005.98
2023-04-11T06:27:34.200Z,1006.06
2023-04-11T06:33:57.279Z,1006.12
2023-04-11T06:40:16.978Z,1006.19
2023-04-11T06:46:40.034Z,1006.27
2023-04-11T06:53:00.017Z,1006.37
2023-04-11T06:59:24.391Z,1006.41
2023-04-11T07:05:42.987Z,1006.47
2023-04-11T07:12:06.263Z,1006.49
2023-04-11T07:18:25.987Z,1006.55
2023-04-11T07:24:49.003Z,1006.63
2023-04-11T07:31:09.068Z,1006.66
2023-04-11T07:37:31.989Z,1006.68
2023-04-11T07:43:51.998Z,1006.78
2023-04-11T07:50:15.005Z,1006.82
2023-04-11T07:56:35.009Z,1006.9
2023-04-11T08:02:58.058Z,1006.94
2023-04-11T08:09:18.016Z,1006.98
2023-04-11T08:15:41.001Z,1007.04
2023-04-11T08:22:01.007Z,1007.08
2023-04-11T08:28:24.019Z,1007.15
2023-04-11T08:34:43.997Z,1007.19
2023-04-11T08:41:07.008Z,1007.25
2023-04-11T08:47:27.085Z,1007.29
2023-04-11T08:53:50.003Z,1007.29
2023-04-11T09:00:10.019Z,1007.35
2023-04-11T09:17:32.024Z,1007.41
2023-04-11T09:23:51.984Z,1007.43
2023-04-11T09:30:15.009Z,1007.39
2023-04-11T09:36:35.024Z,1007.43
2023-04-11T09:42:58.015Z,1007.33
2023-04-11T09:49:18.031Z,1007.35
2023-04-11T09:55:41.176Z,1007.33
2023-04-11T10:02:01.062Z,1007.33
2023-04-11T10:08:24.003Z,1007.35
2023-04-11T10:14:44.062Z,1007.39
2023-04-11T10:21:06.999Z,1007.41
2023-04-11T10:27:26.996Z,1007.41
2023-04-11T10:33:50.072Z,1007.43
2023-04-11T10:40:10.257Z,1007.52
2023-04-11T10:46:33.034Z,1007.47
2023-04-11T10:52:53.036Z,1007.49
2023-04-11T10:59:15.981Z,1007.47
2023-04-11T11:05:35.992Z,1007.47
2023-04-11T11:11:59.022Z,1007.47
2023-04-11T11:18:18.979Z,1007.47
2023-04-11T11:24:41.998Z,1007.47
2023-04-11T11:31:02.023Z,1007.52
2023-04-11T11:37:25.028Z,1007.54
2023-04-11T11:43:45.006Z,1007.54
2023-04-11T11:50:08.015Z,1007.52
2023-04-11T11:56:28.003Z,1007.52
2023-04-11T12:02:51.178Z,1007.49
2023-04-11T12:09:11.008Z,1007.52
2023-04-11T12:15:34.007Z,1007.54
2023-04-11T12:21:53.991Z,1007.56
2023-04-11T12:28:17.153Z,1007.52
2023-04-11T12:34:36.987Z,1007.52
2023-04-11T12:41:14.183Z,1007.49
2023-04-11T12:47:20.051Z,1007.45
2023-04-11T12:53:42.982Z,1007.43
2023-04-11T13:00:03.027Z,1007.47
2023-04-11T13:06:26.009Z,1007.43
2023-04-11T13:12:46.120Z,1007.49
2023-04-11T13:19:08.984Z,1007.54
2023-04-11T13:25:29.101Z,1007.45
2023-04-11T13:31:52.034Z,1007.49
2023-04-11T13:38:11.993Z,1007.39
2023-04-11T13:44:35.213Z,1007.41
2023-04-11T13:50:54.989Z,1007.35
2023-04-11T13:57:18.006Z,1007.39
2023-04-11T14:03:38.171Z,1007.31
2023-04-11T14:10:01.013Z,1007.37
2023-04-11T14:16:22.039Z,1007.41
2023-04-11T14:22:45.036Z,1007.43
2023-04-11T14:29:04.974Z,1007.41
2023-04-11T14:35:28.008Z,1007.37
2023-04-11T14:41:48.079Z,1007.33
2023-04-11T14:48:11.009Z,1007.25
2023-04-11T15:04:36.057Z,1007.21
2023-04-11T15:10:58.984Z,1007.15
2023-04-11T15:17:18.988Z,1007.17
2023-04-11T15:23:42.008Z,1007.1
2023-04-11T15:30:02.012Z,1007.08
2023-04-11T15:36:25.049Z,1007.1
2023-04-11T15:42:45.028Z,1007.02
2023-04-11T15:49:08.001Z,1006.98
2023-04-11T15:55:27.980Z,1006.92
2023-04-11T16:01:51.092Z,1006.88
2023-04-11T16:08:11.021Z,1006.86
2023-04-11T16:14:33.990Z,1006.78
2023-04-11T16:20:54.037Z,1006.72
2023-04-11T16:27:16.983Z,1006.66
2023-04-11T16:33:36.965Z,1006.59
2023-04-11T16:40:00.015Z,1006.57
2023-04-11T16:46:19.995Z,1006.53
2023-04-11T16:52:43.014Z,1006.47
2023-04-11T16:59:03.001Z,1006.45
2023-04-11T17:05:25.982Z,1006.45
2023-04-11T17:11:46.017Z,1006.43
2023-04-11T17:18:09.085Z,1006.41
2023-04-11T17:24:29.055Z,1006.35
2023-04-11T17:30:52.007Z,1006.33
2023-04-11T17:37:12.054Z,1006.35
2023-04-11T17:43:34.999Z,1006.33
2023-04-11T17:49:54.977Z,1006.31
2023-04-11T17:56:18.066Z,1006.23
2023-04-11T18:02:39.228Z,1006.16
2023-04-11T18:09:01.084Z,1006.12
2023-04-11T18:15:21.016Z,1006.04
2023-04-11T18:21:44.198Z,1006.06
2023-04-11T18:28:03.972Z,1006.02
2023-04-11T18:34:27.044Z,1006.02
2023-04-11T18:40:48.443Z,1006.04
2023-04-11T18:47:11.627Z,1005.98
2023-04-11T18:53:30.160Z,1005.98
2023-04-11T18:59:55.181Z,1005.94
2023-04-11T19:06:13.234Z,1005.88
2023-04-11T19:12:36.022Z,1005.84
2023-04-11T19:18:55.981Z,1005.8
2023-04-11T19:25:18.984Z,1005.72
2023-04-11T19:31:39.076Z,1005.69
2023-04-11T19:38:02.634Z,1005.65
2023-04-11T19:44:22.001Z,1005.65
2023-04-11T19:50:45.039Z,1005.65
2023-04-11T19:57:04.981Z,1005.57
2023-04-11T20:20:11.003Z,1005.23
2023-04-11T20:26:33.989Z,1005.11
2023-04-11T20:32:54.106Z,1005.01
2023-04-11T20:39:17.038Z,1004.9
2023-04-11T20:45:37.004Z,1004.84
2023-04-11T20:51:59.997Z,1004.8
2023-04-11T20:58:20.014Z,1004.74
2023-04-11T21:04:43.022Z,1004.6
2023-04-11T21:11:02.998Z,1004.5
2023-04-11T21:17:26.019Z,1004.39
2023-04-11T21:23:45.985Z,1004.27
2023-04-11T21:30:09.001Z,1004.19
2023-04-11T21:36:29.027Z,1004.13
2023-04-11T21:42:51.988Z,1004.09
2023-04-11T21:49:12.020Z,1004.01
2023-04-11T21:55:35.016Z,1003.96
2023-04-11T22:19:50.004Z,1003.53
2023-04-11T22:26:09.985Z,1003.45
2023-04-11T22:32:32.982Z,1003.33
2023-04-11T22:38:53.133Z,1003.25
2023-04-11T22:45:16.014Z,1003.17
2023-04-11T22:51:36.026Z,1003.11
2023-04-11T22:57:58.996Z,1003.04
2023-04-11T23:04:19.007Z,1002.92
2023-04-11T23:10:41.979Z,1002.74
2023-04-11T23:17:02.218Z,1002.64
2023-04-11T23:23:24.969Z,1002.58
2023-04-11T23:29:44.984Z,1002.5
2023-04-11T23:36:08.102Z,1002.4
2023-04-11T23:42:27.988Z,1002.29
2023-04-11T23:48:50.996Z,1002.25
2023-04-11T23:55:11.024Z,1002.13
